Time;durP1;ratioP1;P1;durP2;ratioP2;P2;SDS_P1;SDS_P2;PMS_P1;PMS_P2;Temp;Humidity;BMP_temperature;BMP_pressure;BME280_temperature;BME280_humidity;BME280_pressure;Samples;Min_cycle;Max_cycle;Signal;HPM_P1;HPM_P2
2022/02/14 00:01:50;;;;;;;;;;;;;;;;;;;;;
2022/02/14 00:04:18;;;;;;;;;;;;;;;23.56;31.15;102020.81;104579;1307;62407;-85
2022/02/14 00:06:44;;;;;;;6.20;3.00;;;;;;;23.53;31.21;102020.05;104527;1307;72679;-85
2022/02/14 00:09:22;;;;;;;4.90;3.10;;;;;;;23.55;31.24;102019.97;104382;1308;62162;-82
2022/02/14 00:11:53;;;;;;;5.30;3.30;;;;;;;23.55;31.13;102018.89;104458;1308;61986;-85
2022/02/14 00:14:39;;;;;;;;;;;;;;;;;;;;;
2022/02/14 00:17:07;;;;;;;5.20;3.10;;;;;;;23.55;31.24;102017.98;104659;1306;72782;-86
2022/02/14 00:19:42;;;;;;;5.40;3.60;;;;;;;23.54;31.18;102012.60;104494;1308;75386;-82
2022/02/14 00:22:19;;;;;;;5.00;3.10;;;;;;;23.54;31.17;102005.78;104614;1306;61960;-84
2022/02/14 00:24:45;;;;;;;5.50;3.30;;;;;;;23.55;31.15;102003.09;104687;1306;62003;-86
2022/02/14 00:27:16;;;;;;;5.50;3.30;;;;;;;23.55;31.13;102005.39;104476;1308;62108;-84
2022/02/14 00:29:44;;;;;;;6.20;3.60;;;;;;;23.55;31.14;102002.70;104510;1308;75767;-82
2022/02/14 00:32:30;;;;;;;5.20;3.30;;;;;;;23.55;31.10;102003.05;104617;1306;62105;-81
2022/02/14 00:35:13;;;;;;;4.60;3.00;;;;;;;23.55;31.02;101999.48;104621;1306;62006;-84
2022/02/14 00:37:45;;;;;;;5.10;3.10;;;;;;;23.55;31.18;101997.11;104523;1307;72760;-83
2022/02/14 00:40:11;;;;;;;5.60;3.30;;;;;;;23.55;31.05;101992.80;104521;1308;75319;-82
2022/02/14 00:42:39;;;;;;;4.90;3.30;;;;;;;23.55;31.16;101990.48;104664;1306;62169;-82
2022/02/14 00:45:16;;;;;;;5.10;3.50;;;;;;;23.55;31.10;101989.23;104640;1306;62110;-81
2022/02/14 00:47:45;;;;;;;5.10;3.20;;;;;;;23.55;31.09;101979.71;104503;1308;72743;-83
2022/02/14 00:50:21;;;;;;;4.90;3.30;;;;;;;23.54;31.16;101979.17;104652;1306;74333;-80
2022/02/14 00:52:59;;;;;;;5.00;3.30;;;;;;;23.55;31.14;101976.50;104358;1306;62003;-85
2022/02/14 00:55:28;;;;;;;5.30;3.30;;;;;;;23.55;31.11;101974.33;104615;1306;62120;-85
2022/02/14 00:57:53;;;;;;;5.80;3.30;;;;;;;23.54;31.05;101969.52;104559;1308;73844;-83
2022/02/14 01:00:42;;;;;;;6.00;3.30;;;;;;;23.54;31.19;101967.87;104537;1307;74475;-79
2022/02/14 01:03:11;;;;;;;5.80;3.50;;;;;;;23.54;31.06;101966.46;104627;1307;62785;-82
2022/02/14 01:05:50;;;;;;;5.30;3.50;;;;;;;23.54;31.07;101960.52;104652;1306;61610;-86
2022/02/14 01:08:28;;;;;;;6.10;3.70;;;;;;;23.55;31.13;101960.50;104662;1306;72990;-80
2022/02/14 01:10:57;;;;;;;6.30;3.40;;;;;;;23.54;31.20;101959.80;104663;1306;75622;-81
2022/02/14 01:13:29;;;;;;;6.10;3.20;;;;;;;23.54;31.01;101958.17;104650;1308;62136;-87
2022/02/14 01:16:16;;;;;;;5.30;3.40;;;;;;;23.54;31.09;101957.29;104641;1307;62140;-81
2022/02/14 01:18:40;;;;;;;5.40;3.10;;;;;;;23.54;31.13;101953.89;104592;1306;73980;-85
2022/02/14 01:21:15;;;;;;;5.60;3.40;;;;;;;23.54;31.19;101954.05;104516;1306;62110;-83
2022/02/14 01:24:01;;;;;;;6.10;3.40;;;;;;;23.54;31.10;101952.63;104629;1306;62426;-83
2022/02/14 01:26:29;;;;;;;5.20;3.40;;;;;;;23.54;31.20;101956.95;104668;1306;62057;-82
2022/02/14 01:29:13;;;;;;;4.90;3.20;;;;;;;23.54;31.13;101955.16;104668;1306;74178;-85
2022/02/14 01:31:58;;;;;;;5.60;3.40;;;;;;;23.54;31.09;101955.30;104611;1306;77043;-87
2022/02/14 01:34:36;;;;;;;7.00;3.40;;;;;;;23.55;31.16;101958.84;104620;1306;62205;-82
2022/02/14 01:37:10;;;;;;;5.80;3.40;;;;;;;23.56;31.17;101957.91;104647;1306;62094;-84
2022/02/14 01:39:39;;;;;;;5.10;3.60;;;;;;;23.54;31.11;101952.06;104640;1306;74097;-81
2022/02/14 01:42:08;;;;;;;7.20;4.00;;;;;;;23.55;31.07;101952.59;104517;1307;62185;-81
2022/02/14 01:45:04;;;;;;;5.40;3.30;;;;;;;23.54;31.04;101951.36;104632;1306;61991;-81
2022/02/14 01:47:40;;;;;;;6.50;4.00;;;;;;;23.54;31.12;101946.89;104666;1306;62992;-82
2022/02/14 01:50:15;;;;;;;6.20;3.80;;;;;;;23.54;31.10;101944.71;104539;1307;72853;-82
2022/02/14 01:52:43;;;;;;;5.40;4.10;;;;;;;23.54;31.05;101941.45;104626;1307;75559;-82
2022/02/14 01:55:29;;;;;;;6.50;4.00;;;;;;;23.54;31.06;101934.82;104426;1307;62008;-82
2022/02/14 01:58:22;;;;;;;5.90;3.90;;;;;;;23.54;31.02;101931.77;104538;1307;61957;-85
2022/02/14 02:00:51;;;;;;;6.10;4.00;;;;;;;23.54;31.00;101927.16;104672;1306;72838;-82
2022/02/14 02:03:22;;;;;;;6.00;3.70;;;;;;;23.54;31.12;101923.52;104627;1306;76641;-84
2022/02/14 02:06:01;;;;;;;5.40;4.00;;;;;;;23.54;31.12;101922.09;104594;1306;62107;-82
2022/02/14 02:08:29;;;;;;;6.00;3.70;;;;;;;23.54;30.99;101923.17;104526;1307;62064;-81
2022/02/14 02:14:18;;;;;;;;;;;;;;;;;;;;;
2022/02/14 02:16:44;;;;;;;5.40;3.60;;;;;;;23.53;31.08;101921.79;104544;1306;62014;-80
2022/02/14 02:19:40;;;;;;;5.20;3.40;;;;;;;23.53;31.08;101917.48;104533;1307;62105;-82
2022/02/14 02:22:11;;;;;;;5.40;3.70;;;;;;;23.52;31.15;101918.42;104620;1306;74272;-81
2022/02/14 02:24:49;;;;;;;5.50;3.90;;;;;;;23.53;31.09;101914.25;104663;1306;75800;-83
2022/02/14 02:27:33;;;;;;;5.30;3.30;;;;;;;23.53;31.20;101917.99;104646;1306;62072;-81
2022/02/14 02:30:07;;;;;;;6.40;3.80;;;;;;;23.53;31.18;101916.22;104547;1307;60575;-84
2022/02/14 02:32:41;;;;;;;5.60;3.60;;;;;;;23.53;31.11;101914.06;104655;1306;72218;-82
2022/02/14 02:35:27;;;;;;;6.00;3.40;;;;;;;23.53;31.11;101909.95;104679;1306;74673;-85
2022/02/14 02:38:16;;;;;;;5.70;3.50;;;;;;;23.53;31.19;101909.39;104555;1308;62705;-82
2022/02/14 02:40:51;;;;;;;5.30;3.30;;;;;;;23.53;31.06;101913.34;104689;1306;62104;-86
2022/02/14 02:43:30;;;;;;;4.60;3.40;;;;;;;23.53;31.05;101906.71;104631;1308;73137;-83
2022/02/14 02:46:07;;;;;;;6.00;3.60;;;;;;;23.53;31.12;101907.06;104546;1306;75563;-81
2022/02/14 02:48:49;;;;;;;4.90;3.10;;;;;;;23.53;31.16;101911.33;104706;1306;62105;-84
2022/02/14 02:51:26;;;;;;;6.40;3.70;;;;;;;23.54;31.15;101913.12;104679;1307;62000;-86
2022/02/14 02:54:04;;;;;;;4.80;3.00;;;;;;;23.54;31.09;101912.76;104682;1306;73471;-87
2022/02/14 02:56:33;;;;;;;5.70;3.40;;;;;;;23.53;30.96;101908.14;104665;1306;76542;-82
2022/02/14 02:59:09;;;;;;;5.50;3.20;;;;;;;23.54;31.16;101908.81;104571;1306;61899;-80
2022/02/14 03:01:43;;;;;;;5.30;3.20;;;;;;;23.53;31.09;101908.29;104635;1306;62095;-82
2022/02/14 03:04:19;;;;;;;6.40;3.50;;;;;;;23.54;31.06;101907.55;104663;1307;74002;-82
2022/02/14 03:06:56;;;;;;;5.50;3.00;;;;;;;23.53;31.21;101908.30;104550;1306;75445;-83
2022/02/14 03:09:24;;;;;;;4.90;3.00;;;;;;;23.53;31.14;101907.77;104697;1306;61987;-82
2022/02/14 03:12:04;;;;;;;5.90;3.20;;;;;;;23.54;31.11;101910.40;104540;1306;61970;-84
2022/02/14 03:14:45;;;;;;;5.20;3.40;;;;;;;23.54;31.07;101908.27;104523;1306;73883;-82
2022/02/14 03:17:21;;;;;;;5.30;3.20;;;;;;;23.53;31.08;101906.66;104619;1306;76453;-85
2022/02/14 03:19:52;;;;;;;4.90;3.20;;;;;;;23.53;31.10;101903.44;104688;1306;61972;-83
2022/02/14 03:22:26;;;;;;;5.60;3.20;;;;;;;23.54;31.09;101903.95;104418;1307;62074;-82
2022/02/14 03:25:04;;;;;;;5.30;3.20;;;;;;;23.53;31.11;101902.71;104580;1307;73797;-81
2022/02/14 03:27:35;;;;;;;6.70;3.20;;;;;;;23.54;31.06;101904.13;104538;1308;76711;-82
2022/02/14 03:30:22;;;;;;;4.70;3.10;;;;;;;23.54;31.10;101904.27;104552;1307;62118;-83
2022/02/14 03:32:57;;;;;;;4.20;2.90;;;;;;;23.54;31.15;101903.71;104562;1306;62146;-78
2022/02/14 03:35:35;;;;;;;4.80;3.20;;;;;;;23.54;31.11;101899.83;104608;1306;73950;-80
2022/02/14 03:38:15;;;;;;;4.40;3.00;;;;;;;23.54;31.12;101900.19;104639;1306;75820;-85
2022/02/14 03:40:44;;;;;;;4.90;3.10;;;;;;;23.53;31.18;101898.05;104617;1306;62176;-83
2022/02/14 03:43:26;;;;;;;4.90;2.90;;;;;;;23.54;31.08;101899.45;104543;1306;62212;-85
2022/02/14 03:46:08;;;;;;;4.20;3.00;;;;;;;23.53;31.07;101897.68;104626;1308;72761;-82
2022/02/14 03:48:56;;;;;;;;;;;;;;;;;;;;;
2022/02/14 03:51:32;;;;;;;4.50;2.90;;;;;;;23.54;31.12;101893.52;104674;1306;62111;-83
2022/02/14 03:53:58;;;;;;;5.80;3.00;;;;;;;23.53;31.11;101890.32;104614;1306;61966;-83
2022/02/14 03:56:39;;;;;;;5.30;3.00;;;;;;;23.53;30.99;101890.69;104440;1307;62154;-82
2022/02/14 03:59:10;;;;;;;5.10;2.90;;;;;;;23.53;30.98;101889.23;104635;1306;76750;-82
2022/02/14 04:01:48;;;;;;;5.00;3.20;;;;;;;23.53;31.01;101887.46;104638;1306;62228;-83
2022/02/14 04:04:23;;;;;;;4.70;3.10;;;;;;;23.54;31.02;101882.57;104636;1307;62136;-86
2022/02/14 04:07:03;;;;;;;5.80;3.00;;;;;;;23.53;31.01;101885.84;104656;1306;72616;-86
2022/02/14 04:09:38;;;;;;;5.40;3.10;;;;;;;23.53;31.05;101882.96;104661;1306;75613;-85
2022/02/14 04:12:09;;;;;;;5.00;3.20;;;;;;;23.53;31.11;101879.73;104538;1306;62121;-85
2022/02/14 04:14:42;;;;;;;5.10;3.20;;;;;;;23.52;30.87;101876.02;104417;1307;62010;-82
2022/02/14 04:17:24;;;;;;;6.00;3.30;;;;;;;23.52;30.93;101873.14;104606;1306;72327;-82
2022/02/14 04:20:03;;;;;;;4.40;3.10;;;;;;;23.52;31.25;101870.45;104623;1308;75734;-82
2022/02/14 04:22:29;;;;;;;5.10;3.30;;;;;;;23.52;31.02;101871.20;104622;1306;61965;-82
2022/02/14 04:24:57;;;;;;;5.70;3.30;;;;;;;23.52;31.08;101871.73;104515;1307;62121;-83
2022/02/14 04:27:32;;;;;;;4.90;3.30;;;;;;;23.52;31.01;101869.95;104666;1306;73794;-80
2022/02/14 04:29:58;;;;;;;5.40;3.20;;;;;;;23.52;31.06;101869.02;104634;1306;75602;-85
2022/02/14 04:32:32;;;;;;;6.40;3.50;;;;;;;23.52;31.06;101871.33;104655;1306;62341;-79
2022/02/14 04:35:11;;;;;;;6.30;3.40;;;;;;;23.52;31.02;101869.41;104648;1306;61956;-84
2022/02/14 04:37:54;;;;;;;5.70;3.20;;;;;;;23.52;31.04;101873.71;104534;1308;73895;-88
2022/02/14 04:40:23;;;;;;;5.00;3.50;;;;;;;23.51;31.02;101870.69;104637;1306;76821;-85
2022/02/14 04:43:01;;;;;;;4.80;3.20;;;;;;;23.51;31.02;101866.93;104601;1308;62574;-79
2022/02/14 04:45:36;;;;;;;5.30;3.10;;;;;;;23.52;30.91;101866.54;104654;1306;62426;-84
2022/02/14 04:48:23;;;;;;;6.00;3.60;;;;;;;23.51;30.92;101863.52;104542;1306;72844;-85
2022/02/14 04:51:11;;;;;;;6.30;3.80;;;;;;;23.51;31.01;101865.69;104217;1313;76454;-84
2022/02/14 04:53:57;;;;;;;6.20;3.50;;;;;;;23.51;30.93;101864.96;104259;1313;62139;-77
2022/02/14 04:56:32;;;;;;;8.50;3.50;;;;;;;23.52;30.81;101864.21;104224;1314;63877;-82
2022/02/14 04:59:09;;;;;;;;;;;;;;;;;;;;;
2022/02/14 05:01:58;;;;;;;12.30;3.20;;;;;;;23.50;30.75;101870.75;104275;1313;74426;-85
2022/02/14 05:04:37;;;;;;;6.80;3.70;;;;;;;23.51;30.63;101871.95;104074;1313;62214;-84
2022/02/14 05:07:11;;;;;;;;;;;;;;;23.50;30.74;101876.50;104294;1313;62131;-83
2022/02/14 05:09:47;;;;;;;8.00;3.70;;;;;;;23.48;30.60;101875.24;104297;1313;73097;-84
2022/02/14 05:12:20;;;;;;;10.60;4.40;;;;;;;23.47;30.49;101875.61;104183;1313;76181;-80
2022/02/14 05:14:56;;;;;;;7.00;3.90;;;;;;;23.47;30.15;101879.05;104117;1314;62068;-81
2022/02/14 05:17:22;;;;;;;8.20;4.10;;;;;;;23.46;29.98;101881.65;104311;1313;62010;-81
2022/02/14 05:20:00;;;;;;;7.50;4.00;;;;;;;23.45;29.91;101883.10;103984;1313;72982;-86
2022/02/14 05:22:37;;;;;;;9.20;4.30;;;;;;;23.44;29.36;101885.02;104173;1313;74386;-84
2022/02/14 05:25:03;;;;;;;9.60;4.10;;;;;;;23.42;29.44;101888.87;104171;1314;62002;-86
2022/02/14 05:27:36;;;;;;;8.40;4.60;;;;;;;23.41;29.04;101888.61;104084;1313;62004;-86
2022/02/14 05:30:14;;;;;;;7.90;4.50;;;;;;;23.39;29.05;101890.00;104163;1313;72790;-86
2022/02/14 05:32:48;;;;;;;5.90;4.10;;;;;;;23.37;28.82;101895.17;104258;1311;76673;-80
2022/02/14 05:35:14;;;;;;;8.30;4.20;;;;;;;23.33;28.82;101898.27;104071;1313;62142;-79
2022/02/14 05:37:40;;;;;;;9.30;4.60;;;;;;;23.29;28.65;101896.73;103949;1313;62117;-82
2022/02/14 05:40:08;;;;;;;8.30;4.70;;;;;;;23.24;28.44;101901.02;103876;1311;62091;-83
2022/02/14 05:42:35;;;;;;;7.80;4.40;;;;;;;23.16;28.62;101892.52;103819;1311;75430;-79
2022/02/14 05:45:00;;;;;;;8.00;4.80;;;;;;;23.09;28.40;101893.30;103618;1313;66371;-78
2022/02/14 05:47:26;;;;;;;11.00;5.70;;;;;;;23.02;28.30;101892.09;103851;1311;62248;-80
2022/02/14 05:49:51;;;;;;;10.10;5.30;;;;;;;22.96;27.99;101896.94;103755;1311;62277;-80
2022/02/14 05:52:17;;;;;;;12.30;5.80;;;;;;;22.90;27.85;101898.40;103515;1312;62631;-80
2022/02/14 05:54:42;;;;;;;12.60;6.20;;;;;;;22.82;27.45;101901.58;103651;1313;62074;-80
2022/02/14 05:57:10;;;;;;;12.00;6.10;;;;;;;22.75;27.25;101903.42;103717;1313;62017;-80
2022/02/14 05:59:35;;;;;;;13.60;5.30;;;;;;;22.70;27.29;101903.77;103676;1312;61326;-80
2022/02/14 06:02:02;;;;;;;11.60;6.50;;;;;;;22.65;27.29;101904.08;103719;1313;62758;-80
2022/02/14 06:04:31;;;;;;;18.00;7.30;;;;;;;22.59;27.11;101904.05;103533;1311;62210;-78
2022/02/14 06:06:56;;;;;;;17.20;7.00;;;;;;;22.52;26.87;101905.55;104589;1312;60356;-81
2022/02/14 06:09:22;;;;;;;11.50;6.90;;;;;;;22.48;26.67;101903.27;103726;1311;62142;-80
2022/02/14 06:11:47;;;;;;;16.30;7.10;;;;;;;22.50;26.78;101903.02;103673;1312;62073;-80
2022/02/14 06:14:13;;;;;;;16.50;6.60;;;;;;;22.52;26.50;101901.10;103732;1313;62221;-79
2022/02/14 06:16:38;;;;;;;11.70;6.90;;;;;;;22.54;26.44;101899.50;103730;1311;62232;-79
2022/02/14 06:19:04;;;;;;;14.30;6.50;;;;;;;22.58;26.33;101905.21;103640;1313;60672;-79
2022/02/14 06:21:30;;;;;;;11.80;6.50;;;;;;;22.61;26.24;101904.11;103650;1313;62087;-79
2022/02/14 06:23:55;;;;;;;11.90;6.00;;;;;;;22.65;26.08;101905.67;103616;1313;62112;-79
2022/02/14 06:26:21;;;;;;;14.10;6.50;;;;;;;22.68;26.07;101907.80;103640;1313;62099;-81
2022/02/14 06:28:46;;;;;;;12.10;6.30;;;;;;;22.72;25.76;101909.38;103638;1313;62109;-79
2022/02/14 06:31:12;;;;;;;10.80;5.60;;;;;;;22.74;25.81;101909.63;103715;1313;62629;-79
2022/02/14 06:33:38;;;;;;;9.80;6.20;;;;;;;22.74;25.92;101905.14;103674;1314;62299;-78
2022/02/14 06:36:04;;;;;;;12.30;6.20;;;;;;;22.75;25.93;101911.73;103511;1314;62092;-79
2022/02/14 06:38:29;;;;;;;13.30;6.50;;;;;;;22.74;25.69;101907.31;103617;1313;62103;-79
2022/02/14 06:40:56;;;;;;;9.80;6.20;;;;;;;22.73;25.66;101907.35;103741;1313;62091;-79
2022/02/14 06:43:22;;;;;;;8.90;6.10;;;;;;;22.72;25.67;101906.33;103602;1313;62062;-79
2022/02/14 06:45:47;;;;;;;11.60;6.40;;;;;;;22.71;25.60;101905.50;103557;1314;62093;-79
2022/02/14 06:48:13;;;;;;;9.80;7.30;;;;;;;22.70;25.61;101903.78;103784;1313;62806;-79
2022/02/14 06:50:39;;;;;;;10.80;7.40;;;;;;;22.68;25.28;101898.65;103554;1314;75695;-79
2022/02/14 06:53:04;;;;;;;17.70;8.80;;;;;;;22.67;25.35;101893.16;103277;1314;62160;-79
2022/02/14 06:55:29;;;;;;;27.20;10.50;;;;;;;22.64;25.36;101892.64;103341;1313;62304;-79
2022/02/14 06:57:55;;;;;;;21.00;10.30;;;;;;;22.60;25.54;101897.19;103667;1313;62231;-79
2022/02/14 07:00:21;;;;;;;21.60;10.80;;;;;;;22.56;25.97;101894.54;103665;1313;62120;-79
2022/02/14 07:02:47;;;;;;;21.40;10.90;;;;;;;22.52;26.11;101890.83;103338;1313;62074;-79
2022/02/14 07:05:15;;;;;;;21.00;10.40;;;;;;;22.48;26.19;101886.05;103563;1313;60573;-78
2022/02/14 07:07:41;;;;;;;15.10;9.00;;;;;;;22.45;26.30;101882.66;103702;1313;62180;-78
2022/02/14 07:10:07;;;;;;;19.50;8.60;;;;;;;22.42;26.22;101883.52;103484;1314;61704;-79
2022/02/14 07:12:32;;;;;;;19.30;8.40;;;;;;;22.42;26.15;101888.19;103584;1313;62172;-78
2022/02/14 07:14:58;;;;;;;14.50;7.80;;;;;;;22.43;26.29;101880.27;103690;1314;62198;-79
2022/02/14 07:17:24;;;;;;;20.80;7.80;;;;;;;22.44;26.21;101884.16;103743;1313;62358;-77
2022/02/14 07:19:49;;;;;;;17.10;7.50;;;;;;;22.45;26.24;101883.70;104072;1313;62129;-80
2022/02/14 07:22:15;;;;;;;17.00;7.50;;;;;;;22.49;26.24;101884.77;103686;1314;62066;-79
2022/02/14 07:24:40;;;;;;;16.20;7.30;;;;;;;22.52;26.23;101888.89;103687;1313;62139;-79
2022/02/14 07:27:06;;;;;;;13.70;6.80;;;;;;;22.55;26.28;101887.95;103517;1311;64258;-80
2022/02/14 07:29:32;;;;;;;19.40;7.30;;;;;;;22.58;26.46;101886.16;103661;1313;62411;-78
2022/02/14 07:31:57;;;;;;;12.10;6.80;;;;;;;22.61;26.36;101889.21;103677;1313;62388;-79
2022/02/14 07:34:23;;;;;;;13.00;6.90;;;;;;;22.61;26.40;101892.46;103752;1311;62254;-79
2022/02/14 07:36:49;;;;;;;13.90;7.00;;;;;;;22.59;26.41;101892.57;103805;1311;76061;-79
2022/02/14 07:39:14;;;;;;;19.20;7.40;;;;;;;22.57;26.36;101896.66;103753;1311;62214;-79
2022/02/14 07:41:40;;;;;;;17.90;8.00;;;;;;;22.54;26.40;101894.27;103778;1311;61339;-79
2022/02/14 07:44:06;;;;;;;19.90;6.80;;;;;;;22.51;26.58;101892.51;103719;1313;62083;-79
2022/02/14 07:46:32;;;;;;;11.80;6.30;;;;;;;22.47;26.55;101892.23;104986;1305;60596;-78
2022/02/14 07:48:57;;;;;;;16.70;6.50;;;;;;;22.44;26.31;101891.50;105156;1308;60423;-78
2022/02/14 07:51:23;;;;;;;11.30;6.40;;;;;;;22.42;26.44;101894.14;104450;1308;60588;-79
2022/02/14 07:53:48;;;;;;;13.50;6.20;;;;;;;22.40;26.39;101894.23;104099;1306;62160;-79
2022/02/14 07:56:14;;;;;;;13.10;6.40;;;;;;;22.34;26.27;101898.18;103919;1308;62126;-78
2022/02/14 07:58:40;;;;;;;14.10;6.80;;;;;;;22.19;26.13;101899.24;103777;1306;62044;-78
2022/02/14 08:01:06;;;;;;;18.30;6.30;;;;;;;22.13;26.18;101897.58;104423;1306;62050;-79
2022/02/14 08:03:32;;;;;;;18.80;6.20;;;;;;;22.04;26.15;101898.67;103760;1308;61470;-79
2022/02/14 08:05:58;;;;;;;14.60;5.80;;;;;;;22.01;26.15;101897.02;104993;1306;60360;-78
2022/02/14 08:08:23;;;;;;;19.20;6.10;;;;;;;22.04;26.19;101896.65;105128;1306;73108;-79
2022/02/14 08:10:49;;;;;;;14.30;5.80;;;;;;;22.07;26.14;101893.64;105050;1307;60706;-79
2022/02/14 08:13:15;;;;;;;13.50;5.40;;;;;;;22.08;26.26;101895.35;105122;1307;60405;-79
2022/02/14 08:15:40;;;;;;;9.30;5.30;;;;;;;22.10;26.40;101893.48;104591;1306;60311;-79
2022/02/14 08:18:07;;;;;;;10.40;5.10;;;;;;;22.13;26.30;101892.23;104198;1306;62060;-80
2022/02/14 08:20:34;;;;;;;11.00;5.00;;;;;;;22.18;26.19;101893.39;104968;1307;73812;-79
2022/02/14 08:23:02;;;;;;;12.80;5.40;;;;;;;22.23;26.32;101892.89;104338;1308;60382;-80
2022/02/14 08:25:28;;;;;;;14.00;4.80;;;;;;;22.28;26.49;101894.02;104115;1306;61916;-80
2022/02/14 08:27:53;;;;;;;9.10;4.70;;;;;;;22.33;26.20;101889.64;104332;1308;60397;-80
2022/02/14 08:30:19;;;;;;;8.50;4.80;;;;;;;22.38;26.37;101885.97;104526;1305;62152;-79
2022/02/14 08:32:44;;;;;;;12.10;5.00;;;;;;;22.41;26.26;101883.08;104383;1305;62834;-79
2022/02/14 08:35:10;;;;;;;8.20;4.50;;;;;;;22.44;26.29;101884.50;104269;1306;62189;-80
2022/02/14 08:37:36;;;;;;;9.40;4.40;;;;;;;22.47;26.11;101886.88;104005;1306;62098;-80
2022/02/14 08:40:02;;;;;;;8.30;4.70;;;;;;;22.48;26.28;101883.54;104138;1306;65736;-80
2022/02/14 08:42:28;;;;;;;9.10;4.90;;;;;;;22.50;26.13;101881.10;104078;1305;62128;-80
2022/02/14 08:44:53;;;;;;;11.80;5.20;;;;;;;22.52;26.16;101884.23;104083;1306;63131;-79
2022/02/14 08:47:19;;;;;;;9.70;4.30;;;;;;;22.53;26.12;101885.94;104259;1305;62109;-79
2022/02/14 08:49:47;;;;;;;8.20;4.50;;;;;;;22.55;25.97;101886.92;104051;1308;61322;-81
2022/02/14 08:52:12;;;;;;;9.20;4.40;;;;;;;22.55;26.10;101884.59;104202;1305;61583;-80
2022/02/14 08:54:38;;;;;;;8.90;4.60;;;;;;;22.51;26.04;101879.59;103945;1306;62136;-79
2022/02/14 08:57:03;;;;;;;8.10;4.10;;;;;;;22.37;25.85;101879.36;104058;1306;60752;-79
2022/02/14 08:59:29;;;;;;;8.80;4.60;;;;;;;22.28;25.98;101885.08;104017;1305;62147;-79
2022/02/14 09:01:56;;;;;;;11.00;4.20;;;;;;;22.23;26.07;101884.99;104400;1305;62160;-79
2022/02/14 09:04:22;;;;;;;10.30;4.70;;;;;;;22.19;26.26;101879.13;104058;1307;62083;-78
2022/02/14 09:06:48;;;;;;;13.50;5.00;;;;;;;22.17;26.29;101872.80;103981;1305;73894;-79
2022/02/14 09:09:14;;;;;;;11.40;4.90;;;;;;;22.16;26.35;101877.69;103983;1305;62129;-78
2022/02/14 09:11:41;;;;;;;13.90;5.40;;;;;;;22.15;26.42;101876.86;103619;1308;62435;-79
2022/02/14 09:14:08;;;;;;;9.50;4.00;;;;;;;22.14;26.45;101874.56;103665;1308;62143;-80
2022/02/14 09:16:34;;;;;;;11.30;4.60;;;;;;;22.13;26.68;101875.39;103743;1307;62115;-79
2022/02/14 09:18:59;;;;;;;10.10;4.30;;;;;;;22.11;26.72;101872.98;104064;1308;61294;-79
2022/02/14 09:21:25;;;;;;;9.90;4.20;;;;;;;22.09;26.61;101870.23;104021;1305;60610;-81
2022/02/14 09:23:51;;;;;;;6.80;4.10;;;;;;;22.08;26.54;101870.44;104504;1305;62269;-79
2022/02/14 09:26:17;;;;;;;9.40;4.50;;;;;;;22.08;26.70;101865.07;104183;1305;62084;-79
2022/02/14 09:28:43;;;;;;;8.50;4.00;;;;;;;22.07;26.58;101865.98;104122;1306;62566;-79
2022/02/14 09:31:09;;;;;;;7.90;4.20;;;;;;;22.07;26.65;101861.88;104102;1305;62174;-79
2022/02/14 09:33:34;;;;;;;11.70;4.20;;;;;;;22.07;26.61;101859.58;104095;1308;62372;-80
2022/02/14 09:36:00;;;;;;;6.40;3.80;;;;;;;22.06;26.58;101856.04;103971;1305;62116;-79
2022/02/14 09:38:26;;;;;;;8.40;3.50;;;;;;;22.06;26.60;101851.77;104089;1306;62100;-80
2022/02/14 09:40:53;;;;;;;10.10;4.10;;;;;;;22.05;26.33;101851.81;104876;1305;60438;-79
2022/02/14 09:43:19;;;;;;;6.40;3.80;;;;;;;22.04;26.53;101849.70;104595;1305;60494;-80
2022/02/14 09:45:44;;;;;;;10.40;3.70;;;;;;;22.03;26.46;101845.83;104136;1305;62225;-79
2022/02/14 09:48:11;;;;;;;9.10;4.00;;;;;;;22.02;26.60;101844.80;104040;1307;62060;-78
2022/02/14 09:50:37;;;;;;;9.30;4.00;;;;;;;22.02;26.40;101843.38;104956;1304;60195;-79
2022/02/14 09:53:04;;;;;;;11.80;4.40;;;;;;;22.01;26.18;101838.59;103925;1308;62121;-79
2022/02/14 09:55:30;;;;;;;11.60;4.70;;;;;;;21.87;26.01;101833.31;104202;1306;62036;-79
2022/02/14 09:57:55;;;;;;;16.50;4.20;;;;;;;21.61;25.94;101831.77;103972;1306;60063;-79
2022/02/14 10:00:21;;;;;;;10.70;4.00;;;;;;;21.53;26.09;101824.70;104066;1306;70802;-80
2022/02/14 10:02:47;;;;;;;10.60;3.70;;;;;;;21.52;26.13;101825.09;104297;1306;60676;-81
2022/02/14 10:05:21;;;;;;;7.90;3.60;;;;;;;21.51;26.09;101824.59;104077;1305;62105;-81
2022/02/14 10:07:48;;;;;;;8.50;3.40;;;;;;;21.54;26.24;101817.14;104482;1306;62552;-81
2022/02/14 10:10:26;;;;;;;10.90;3.50;;;;;;;21.57;26.34;101814.79;104404;1306;73673;-80
2022/02/14 10:12:56;;;;;;;12.00;3.40;;;;;;;21.62;26.19;101807.91;103959;1305;75574;-82
2022/02/14 10:15:23;;;;;;;9.40;3.50;;;;;;;21.64;26.42;101806.20;104380;1306;62116;-80
2022/02/14 10:17:50;;;;;;;8.60;3.20;;;;;;;21.65;26.33;101799.48;104312;1305;362678;-79
2022/02/14 10:20:21;;;;;;;7.60;3.30;;;;;;;21.70;26.93;101798.48;104098;1306;74836;-79
2022/02/14 10:23:12;;;;;;;7.90;3.00;;;;;;;21.75;26.80;101795.46;105358;1305;76692;-79
2022/02/14 10:25:39;;;;;;;7.70;2.90;;;;;;;21.80;26.79;101782.11;105290;1305;61430;-79
2022/02/14 10:28:21;;;;;;;6.90;3.00;;;;;;;21.87;26.75;101781.56;105177;1306;61724;-79
2022/02/14 10:31:17;;;;;;;12.70;3.20;;;;;;;21.95;26.82;101780.01;105188;1306;73727;-79
2022/02/14 10:33:48;;;;;;;12.10;3.10;;;;;;;22.01;26.79;101771.05;105290;1304;76508;-78
2022/02/14 10:36:33;;;;;;;7.70;3.00;;;;;;;22.05;27.02;101769.52;104376;1305;61932;-81
2022/02/14 10:39:23;;;;;;;8.20;3.20;;;;;;;22.11;26.67;101765.23;104798;1305;60422;-79
2022/02/14 10:42:05;;;;;;;8.10;3.00;;;;;;;22.17;26.84;101762.91;104148;1308;73997;-81
2022/02/14 10:47:21;;;;;;;6.70;2.80;;;;;;;22.28;26.81;101756.30;104435;1305;62111;-80
2022/02/14 10:50:10;;;;;;;7.50;2.70;;;;;;;22.32;26.95;101748.73;104191;1308;62748;-82
2022/02/14 10:52:36;;;;;;;10.60;3.10;;;;;;;22.34;27.02;101745.91;104306;1305;73045;-80
2022/02/14 10:55:06;;;;;;;6.70;2.90;;;;;;;22.15;26.58;101740.59;104291;1306;62386;-81
2022/02/14 10:57:34;;;;;;;9.10;3.10;;;;;;;21.78;26.17;101735.15;103895;1305;61960;-79
2022/02/14 11:00:17;;;;;;;6.90;3.00;;;;;;;21.51;25.99;101731.33;104892;1305;60623;-79
2022/02/14 11:02:44;;;;;;;7.90;2.90;;;;;;;21.42;25.92;101727.00;104778;1307;72709;-79
2022/02/14 11:05:10;;;;;;;10.60;3.70;;;;;;;21.41;26.03;101727.92;104778;1305;76954;-80
2022/02/14 11:07:36;;;;;;;10.20;3.10;;;;;;;21.36;25.99;101725.71;104904;1305;59983;-80
2022/02/14 11:10:02;;;;;;;10.80;3.50;;;;;;;21.36;26.11;101720.89;105159;1305;60537;-80
2022/02/14 11:12:30;;;;;;;8.00;3.40;;;;;;;21.41;26.07;101715.19;104911;1308;60325;-79
2022/02/14 11:14:56;;;;;;;7.10;3.10;;;;;;;21.46;26.05;101714.05;104909;1305;75600;-79
2022/02/14 11:17:26;;;;;;;8.30;3.00;;;;;;;21.47;26.14;101714.69;104064;1305;60570;-79
2022/02/14 11:19:53;;;;;;;7.50;2.70;;;;;;;21.50;26.17;101714.17;104225;1305;62029;-77
2022/02/14 11:22:19;;;;;;;8.00;3.00;;;;;;;21.54;26.11;101713.06;105098;1305;73952;-81
2022/02/14 11:24:44;;;;;;;7.80;2.70;;;;;;;21.58;26.02;101712.48;105045;1306;60233;-81
2022/02/14 11:27:12;;;;;;;7.10;2.60;;;;;;;21.58;25.92;101712.98;105099;1308;60165;-81
2022/02/14 11:29:55;;;;;;;5.70;3.00;;;;;;;21.61;26.00;101711.23;104509;1305;62027;-79
2022/02/14 11:32:28;;;;;;;14.20;3.10;;;;;;;21.62;25.96;101711.35;104164;1305;73824;-79
2022/02/14 11:35:12;;;;;;;8.20;3.00;;;;;;;21.58;25.69;101708.91;104052;1305;76869;-78
2022/02/14 11:37:49;;;;;;;9.20;3.30;;;;;;;21.56;25.71;101705.45;104206;1304;61975;-79
2022/02/14 11:40:35;;;;;;;11.30;3.20;;;;;;;21.56;25.56;101702.70;104306;1306;64532;-78
2022/02/14 11:43:11;;;;;;;8.20;2.90;;;;;;;21.60;26.17;101702.48;104284;1308;72775;-79
2022/02/14 11:45:38;;;;;;;11.10;3.00;;;;;;;21.65;26.43;101700.63;104267;1305;76812;-79
2022/02/14 11:48:21;;;;;;;10.40;3.40;;;;;;;21.68;26.93;101699.32;104488;1305;61998;-80